createdAt,value
2017-09-12T00:00:54.396Z,77.55
2017-09-12T00:02:05.102Z,77.55
2017-09-12T00:03:15.666Z,77.55
2017-09-12T00:04:26.100Z,77.45
2017-09-12T00:05:36.606Z,77.45
2017-09-12T00:06:46.745Z,77.55
2017-09-12T00:07:57.219Z,77.65
2017-09-12T00:09:07.329Z,77.55
2017-09-12T00:10:17.801Z,77.65
2017-09-12T00:11:28.233Z,77.55
2017-09-12T00:12:38.254Z,77.45
2017-09-12T00:13:48.687Z,77.45
2017-09-12T00:14:59.121Z,77.45
2017-09-12T00:16:09.801Z,78.13
2017-09-12T00:17:20.241Z,77.74
2017-09-12T00:18:30.349Z,77.36
2017-09-12T00:19:40.464Z,77.55
2017-09-12T00:20:50.898Z,77.26
2017-09-12T00:22:01.374Z,77.55
2017-09-12T00:23:11.566Z,77.55
2017-09-12T00:24:22.048Z,77.26
2017-09-12T00:25:32.710Z,77.45
2017-09-12T00:26:43.164Z,77.65
2017-09-12T00:27:53.734Z,77.94
2017-09-12T00:29:04.214Z,78.31
2017-09-12T00:30:14.654Z,78.03
2017-09-12T00:31:25.116Z,77.94
2017-09-12T00:32:35.588Z,78.13
2017-09-12T00:33:46.032Z,78.13
2017-09-12T00:34:56.163Z,77.94
2017-09-12T00:36:06.639Z,77.94
2017-09-12T00:37:17.115Z,78.22
2017-09-12T00:38:27.294Z,78.31
2017-09-12T00:39:37.797Z,78.22
2017-09-12T00:40:48.237Z,78.41
2017-09-12T00:41:58.664Z,78.22
2017-09-12T00:43:09.346Z,78.22
2017-09-12T00:44:19.785Z,78.51
2017-09-12T00:45:30.222Z,78.7
2017-09-12T00:46:40.332Z,78.41
2017-09-12T00:47:50.985Z,78.31
2017-09-12T00:49:01.682Z,78.89
2017-09-12T00:50:12.160Z,78.89
2017-09-12T00:51:22.585Z,78.89
2017-09-12T00:52:32.699Z,78.7
2017-09-12T00:53:43.117Z,78.7
2017-09-12T00:54:54.012Z,78.89
2017-09-12T00:56:04.513Z,78.99
2017-09-12T00:57:14.655Z,78.7
2017-09-12T00:58:25.085Z,78.79
2017-09-12T00:59:35.541Z,79.08
2017-09-12T01:00:46.243Z,79.27
2017-09-12T01:01:56.666Z,78.99
2017-09-12T01:03:07.159Z,78.99
2017-09-12T01:04:17.680Z,78.89
2017-09-12T01:05:28.141Z,79.17
2017-09-12T01:06:38.856Z,79.27
2017-09-12T01:07:49.276Z,79.27
2017-09-12T01:08:59.718Z,78.89
2017-09-12T01:10:10.159Z,78.89
2017-09-12T01:11:20.646Z,79.08
2017-09-12T01:12:31.318Z,78.99
2017-09-12T01:13:41.764Z,79.17
2017-09-12T01:14:52.344Z,79.17
2017-09-12T01:16:02.756Z,79.08
2017-09-12T01:17:13.214Z,79.17
2017-09-12T01:18:23.437Z,78.99
2017-09-12T01:19:33.866Z,79.08
2017-09-12T01:20:44.312Z,78.99
2017-09-12T01:21:54.771Z,78.99
2017-09-12T01:23:05.351Z,79.36
2017-09-12T01:24:16.148Z,79.27
2017-09-12T01:25:26.563Z,78.89
2017-09-12T01:26:36.693Z,79.17
2017-09-12T01:27:46.831Z,79.36
2017-09-12T01:28:57.385Z,79.56
2017-09-12T01:30:08.138Z,79.36
2017-09-12T01:31:18.361Z,78.99
2017-09-12T01:32:28.780Z,79.36
2017-09-12T01:33:39.113Z,79.27
2017-09-12T01:34:49.544Z,79.17
2017-09-12T01:36:00.238Z,79.27
2017-09-12T01:37:10.670Z,79.36
2017-09-12T01:38:21.115Z,79.27
2017-09-12T01:39:31.563Z,79.46
2017-09-12T01:40:42.109Z,79.36
2017-09-12T01:41:52.787Z,79.46
2017-09-12T01:43:03.210Z,79.36
2017-09-12T01:44:13.708Z,79.46
2017-09-12T01:45:23.687Z,79.46
2017-09-12T01:46:34.192Z,79.36
2017-09-12T01:47:44.861Z,79.85
2017-09-12T01:48:55.330Z,79.65
2017-09-12T01:50:05.850Z,79.36
2017-09-12T01:51:16.276Z,79.17
2017-09-12T01:52:26.271Z,79.56
2017-09-12T01:53:36.949Z,79.85
2017-09-12T01:54:47.370Z,79.27
2017-09-12T01:58:30.716Z,79.27
2017-09-12T01:59:41.088Z,79.17
2017-09-12T02:00:51.522Z,79.22
2017-09-12T02:02:01.960Z,79.31
2017-09-12T02:03:12.366Z,79.41
2017-09-12T02:04:23.265Z,79.41
2017-09-12T02:05:33.692Z,79.41
2017-09-12T02:06:44.127Z,79.41
2017-09-12T02:07:54.551Z,79.6
2017-09-12T02:09:04.660Z,79.12
2017-09-12T02:10:15.401Z,79.22
2017-09-12T02:11:25.835Z,79.41
2017-09-12T02:12:36.260Z,79.12
2017-09-12T02:13:46.822Z,79.22
2017-09-12T02:14:57.299Z,79.41
2017-09-12T02:16:08.217Z,79.22
2017-09-12T02:17:18.652Z,78.93
2017-09-12T02:18:29.163Z,79.31
2017-09-12T02:19:39.275Z,79.5
2017-09-12T02:20:49.703Z,79.31
2017-09-12T02:22:00.402Z,79.27
2017-09-12T02:23:10.861Z,78.89
2017-09-12T02:24:21.295Z,78.89
2017-09-12T02:25:31.736Z,79.27
2017-09-12T02:26:42.179Z,79.27
2017-09-12T02:27:52.111Z,79.17
2017-09-12T02:29:02.801Z,79.41
2017-09-12T02:30:13.257Z,79.46
2017-09-12T02:31:23.681Z,79.46
2017-09-12T02:32:34.245Z,79.27
2017-09-12T02:33:44.927Z,79.46
2017-09-12T02:34:55.357Z,79.56
2017-09-12T02:36:05.353Z,79.65
2017-09-12T02:37:15.795Z,79.94
2017-09-12T02:38:26.348Z,79.56
2017-09-12T02:39:37.044Z,79.85
2017-09-12T02:40:47.495Z,79.85
2017-09-12T02:41:58.007Z,79.75
2017-09-12T02:43:08.450Z,79.65
2017-09-12T02:44:19.856Z,79.85
2017-09-12T02:45:30.565Z,79.85
2017-09-12T02:46:40.988Z,79.75
2017-09-12T02:47:51.566Z,80.32
2017-09-12T02:49:01.996Z,80.32
2017-09-12T02:50:12.492Z,80.32
2017-09-12T02:51:23.175Z,80.41
2017-09-12T02:52:33.595Z,80.32
2017-09-12T02:53:44.157Z,80.22
2017-09-12T02:54:54.582Z,80.32
2017-09-12T02:56:05.014Z,80.13
2017-09-12T02:57:15.702Z,80.32
2017-09-12T02:58:27.120Z,80.32
2017-09-12T02:59:37.550Z,80.22
2017-09-12T03:00:47.999Z,80.13
2017-09-12T03:01:58.457Z,80.13
2017-09-12T03:03:09.138Z,80.13
2017-09-12T03:04:19.572Z,80.22
2017-09-12T03:05:30.222Z,80.51
2017-09-12T03:06:40.861Z,80.41
2017-09-12T03:07:51.313Z,80.51
2017-09-12T03:09:01.997Z,80.32
2017-09-12T03:10:12.525Z,80.32
2017-09-12T03:11:22.940Z,79.94
2017-09-12T03:12:33.382Z,80.41
2017-09-12T03:13:43.464Z,80.04
2017-09-12T03:14:54.216Z,80.32
2017-09-12T03:16:04.676Z,80.41
2017-09-12T03:17:14.797Z,80.32
2017-09-12T03:18:25.224Z,80.04
2017-09-12T03:19:35.653Z,79.65
2017-09-12T03:20:46.371Z,80.51
2017-09-12T03:21:56.495Z,80.32
2017-09-12T03:23:06.923Z,80.51
2017-09-12T03:24:17.341Z,80.61
2017-09-12T03:25:27.466Z,80.51
2017-09-12T03:26:38.168Z,80.41
2017-09-12T03:27:48.587Z,80.41
2017-09-12T03:28:59.040Z,80.32
2017-09-12T03:30:09.042Z,80.32
2017-09-12T03:31:19.187Z,80.32
2017-09-12T03:32:29.920Z,80.32
2017-09-12T03:33:40.045Z,80.41
2017-09-12T03:34:50.561Z,80.22
2017-09-12T03:36:01.002Z,80.41
2017-09-12T03:37:11.431Z,80.32
2017-09-12T03:38:21.781Z,80.32
2017-09-12T03:39:31.960Z,80.41
2017-09-12T03:40:42.413Z,80.13
2017-09-12T03:41:52.548Z,80.32
2017-09-12T03:43:02.670Z,80.41
2017-09-12T03:44:13.383Z,80.04
2017-09-12T03:45:23.799Z,80.41
2017-09-12T03:46:34.434Z,80.13
2017-09-12T03:47:44.920Z,80.32
2017-09-12T03:48:55.349Z,80.7
2017-09-12T03:50:06.058Z,80.51
2017-09-12T03:51:16.477Z,80.7
2017-09-12T03:52:27.001Z,80.8
2017-09-12T03:53:37.447Z,80.61
2017-09-12T03:54:47.907Z,80.51
2017-09-12T03:55:58.590Z,80.7
2017-09-12T03:57:09.014Z,80.7
2017-09-12T03:58:19.366Z,80.7
2017-09-12T03:59:30.030Z,80.61
2017-09-12T04:00:40.467Z,80.51
2017-09-12T04:01:51.144Z,80.7
2017-09-12T04:03:01.585Z,80.61
2017-09-12T04:04:12.025Z,80.51
2017-09-12T04:05:22.463Z,80.61
2017-09-12T04:06:32.916Z,80.61
2017-09-12T04:07:43.185Z,81.27
2017-09-12T04:08:53.618Z,81.18
2017-09-12T04:10:04.154Z,81.09
2017-09-12T04:11:14.160Z,81.09
2017-09-12T04:12:24.664Z,81.09
2017-09-12T04:13:35.371Z,81.09
2017-09-12T04:14:45.818Z,80.99
2017-09-12T04:15:56.264Z,81.18
2017-09-12T04:17:06.702Z,81.09
2017-09-12T04:18:17.137Z,81.18
2017-09-12T04:19:28.046Z,81.09
2017-09-12T04:20:38.517Z,81.27
2017-09-12T04:21:48.657Z,80.51
2017-09-12T04:22:58.649Z,80.51
2017-09-12T04:24:09.083Z,81.27
2017-09-12T04:25:19.828Z,80.41
2017-09-12T04:26:29.971Z,80.41
2017-09-12T04:27:40.502Z,80.8
2017-09-12T04:28:50.939Z,80.32
2017-09-12T04:30:01.067Z,80.99
2017-09-12T04:31:11.795Z,81.18
2017-09-12T04:32:22.540Z,81.09
2017-09-12T04:33:32.955Z,81.18
2017-09-12T04:34:43.367Z,81.18
2017-09-12T04:35:53.816Z,81.18
2017-09-12T04:37:04.487Z,81.27
2017-09-12T04:38:14.929Z,81.09
2017-09-12T04:39:25.041Z,81.09
2017-09-12T04:40:35.689Z,80.99
2017-09-12T04:41:46.117Z,80.99
2017-09-12T04:42:56.490Z,81.09
2017-09-12T04:44:06.935Z,81.18
2017-09-12T04:45:17.349Z,80.99
2017-09-12T04:46:27.865Z,81.27
2017-09-12T04:47:38.317Z,81.09
2017-09-12T04:48:48.763Z,81.09
2017-09-12T04:49:59.174Z,80.41
2017-09-12T04:51:09.314Z,80.61
2017-09-12T04:52:19.745Z,80.7
2017-09-12T04:53:30.234Z,80.41
2017-09-12T04:54:40.513Z,80.41
2017-09-12T04:55:50.633Z,80.7
2017-09-12T04:57:01.083Z,80.41
2017-09-12T04:58:11.625Z,80.32
2017-09-12T04:59:22.039Z,80.8
2017-09-12T05:00:32.445Z,80.13
2017-09-12T05:01:42.877Z,80.27
2017-09-12T05:02:53.337Z,80.55
2017-09-12T05:04:03.788Z,80.36
2017-09-12T05:05:14.240Z,80.55
2017-09-12T05:06:24.931Z,80.36
2017-09-12T05:07:35.395Z,80.36
2017-09-12T05:08:45.819Z,80.27
2017-09-12T05:09:56.262Z,80.36
2017-09-12T05:11:06.713Z,80.46
2017-09-12T05:12:17.432Z,79.98
2017-09-12T05:13:27.902Z,79.98
2017-09-12T05:14:38.456Z,80.36
2017-09-12T05:15:48.878Z,79.88
2017-09-12T05:16:59.295Z,79.88
2017-09-12T05:18:10.019Z,79.88
2017-09-12T05:19:20.236Z,79.79
2017-09-12T05:20:30.676Z,79.41
2017-09-12T05:21:41.104Z,79.79
2017-09-12T05:22:51.589Z,79.79
2017-09-12T05:24:02.276Z,79.69
2017-09-12T05:25:12.708Z,79.88
2017-09-12T05:26:22.819Z,79.88
2017-09-12T05:27:32.795Z,79.69
2017-09-12T05:28:42.905Z,79.88
2017-09-12T05:29:53.616Z,79.69
2017-09-12T05:31:03.727Z,79.41
2017-09-12T05:32:14.180Z,79.31
2017-09-12T05:33:24.633Z,79.22
2017-09-12T05:34:35.087Z,79.41
2017-09-12T05:35:45.821Z,79.22
2017-09-12T05:36:56.267Z,79.31
2017-09-12T05:38:06.703Z,79.12
2017-09-12T05:39:17.125Z,79.41
2017-09-12T05:40:26.834Z,79.44
2017-09-12T05:41:37.501Z,79.41
2017-09-12T05:42:47.932Z,79.44
2017-09-12T05:43:58.412Z,79.12
2017-09-12T05:45:08.842Z,79.22
2017-09-12T05:46:19.269Z,79.06
2017-09-12T05:47:29.971Z,79.35
2017-09-12T05:48:40.439Z,78.93
2017-09-12T05:49:50.879Z,78.87
2017-09-12T05:51:01.351Z,79.16
2017-09-12T05:52:11.770Z,78.58
2017-09-12T05:53:22.514Z,78.97
2017-09-12T05:54:32.929Z,78.78
2017-09-12T05:55:43.358Z,78.97
2017-09-12T05:56:53.853Z,78.58
2017-09-12T05:58:04.469Z,79.06
2017-09-12T05:59:15.155Z,78.87
2017-09-12T06:00:25.575Z,79.25
2017-09-12T06:01:36.035Z,78.68
2017-09-12T06:02:46.468Z,78.39
2017-09-12T06:03:56.932Z,78.49
2017-09-12T06:05:07.632Z,78.68
2017-09-12T06:06:17.758Z,78.78
2017-09-12T06:07:27.619Z,78.58
2017-09-12T06:08:38.154Z,78.49
2017-09-12T06:09:48.324Z,78.49
2017-09-12T06:10:59.056Z,78.58
2017-09-12T06:12:09.706Z,78.2
2017-09-12T06:13:19.933Z,78.2
2017-09-12T06:14:30.364Z,78.01
2017-09-12T06:15:40.857Z,78.58
2017-09-12T06:16:51.543Z,78.2
2017-09-12T06:18:01.982Z,78.11
2017-09-12T06:19:12.408Z,78.01
2017-09-12T06:20:22.863Z,78.3
2017-09-12T06:21:33.425Z,78.2
2017-09-12T06:22:44.123Z,78.01
2017-09-12T06:24:00.813Z,78.3
2017-09-12T06:25:11.243Z,78.01
2017-09-12T06:26:21.239Z,78.11
2017-09-12T06:27:31.612Z,77.34
2017-09-12T06:28:42.303Z,77.63
2017-09-12T06:29:52.797Z,77.53
2017-09-12T06:31:02.956Z,77.72
2017-09-12T06:32:13.389Z,77.57
2017-09-12T06:33:23.746Z,77.34
2017-09-12T06:34:34.536Z,77.57
2017-09-12T06:35:44.996Z,77.28
2017-09-12T06:36:55.442Z,77.19
2017-09-12T06:38:05.682Z,77.28
2017-09-12T06:39:16.118Z,77.09
2017-09-12T06:40:26.805Z,77
2017-09-12T06:41:37.231Z,76.81
2017-09-12T06:42:47.693Z,76.9
2017-09-12T06:43:58.110Z,76.81
2017-09-12T06:45:08.837Z,76.52
2017-09-12T06:46:19.186Z,76.33
2017-09-12T06:47:29.186Z,76.23
2017-09-12T06:48:39.638Z,76.23
2017-09-12T06:49:50.075Z,76.04
2017-09-12T06:51:00.190Z,76.52
2017-09-12T06:52:10.913Z,76.37
2017-09-12T06:53:20.887Z,76.18
2017-09-12T06:54:31.413Z,76.27
2017-09-12T06:55:41.847Z,76.18
2017-09-12T06:56:52.302Z,75.98
2017-09-12T06:58:03.021Z,75.6
2017-09-12T06:59:13.221Z,75.98
2017-09-12T07:00:23.418Z,75.98
2017-09-12T07:01:33.844Z,75.89
2017-09-12T07:02:44.371Z,75.7
2017-09-12T07:03:55.272Z,75.7
2017-09-12T07:05:05.829Z,75.51
2017-09-12T07:06:16.296Z,75.51
2017-09-12T07:07:26.738Z,75.12
2017-09-12T07:08:37.390Z,75.22
2017-09-12T07:09:48.104Z,74.74
2017-09-12T07:10:58.562Z,74.74
2017-09-12T07:12:08.678Z,74.93
2017-09-12T07:13:19.103Z,75.02
2017-09-12T07:14:29.586Z,74.93
2017-09-12T07:15:40.257Z,74.74
2017-09-12T07:16:50.719Z,74.58
2017-09-12T07:18:01.170Z,74.49
2017-09-12T07:19:11.612Z,74.77
2017-09-12T07:20:22.064Z,74.49
2017-09-12T07:21:32.776Z,74.2
2017-09-12T07:22:43.217Z,74.4
2017-09-12T07:23:53.813Z,73.72
2017-09-12T07:25:04.265Z,73.72
2017-09-12T07:26:14.688Z,73.54
2017-09-12T07:27:25.389Z,73.54
2017-09-12T07:28:35.620Z,73.76
2017-09-12T07:29:46.055Z,73.76
2017-09-12T07:30:56.504Z,73.38
2017-09-12T07:32:07.216Z,72.52
2017-09-12T07:33:17.885Z,73.09
2017-09-12T07:34:28.304Z,72.52
2017-09-12T07:35:38.465Z,72.61
2017-09-12T07:36:48.923Z,72.52
2017-09-12T07:37:59.043Z,72.71
2017-09-12T07:39:09.743Z,72.61
2017-09-12T07:40:19.890Z,72.42
2017-09-12T07:41:30.362Z,72.52
2017-09-12T07:42:40.035Z,72.32
2017-09-12T07:43:50.490Z,72.71
2017-09-12T07:45:01.251Z,72.52
2017-09-12T07:46:11.700Z,72.42
2017-09-12T07:47:22.131Z,72.52
2017-09-12T07:48:32.596Z,72.9
2017-09-12T07:49:43.051Z,72.52
2017-09-12T07:50:53.734Z,72.52
2017-09-12T07:52:04.169Z,72.52
2017-09-12T07:53:14.693Z,72.8
2017-09-12T07:54:25.149Z,72.42
2017-09-12T07:55:35.269Z,72.42
2017-09-12T07:56:45.658Z,72.52
2017-09-12T07:57:55.976Z,72.61
2017-09-12T07:59:06.459Z,72.52
2017-09-12T08:00:16.988Z,72.71
2017-09-12T08:01:27.726Z,72.9
2017-09-12T08:02:38.429Z,72.03
2017-09-12T08:03:49.128Z,72.23
2017-09-12T08:04:59.561Z,71.94
2017-09-12T08:06:10.123Z,71.4
2017-09-12T08:07:20.779Z,71.31
2017-09-12T08:08:31.435Z,71.25
2017-09-12T08:09:41.864Z,70.57
2017-09-12T08:10:51.996Z,70.19
2017-09-12T08:12:02.464Z,70
2017-09-12T08:13:12.925Z,69.71
2017-09-12T08:14:23.649Z,69.26
2017-09-12T08:15:34.167Z,69.74
2017-09-12T08:16:44.282Z,69.46
2017-09-12T08:17:54.734Z,68.88
2017-09-12T08:19:04.855Z,68.3
2017-09-12T08:20:15.564Z,68.4
2017-09-12T08:21:26.017Z,68.4
2017-09-12T08:22:36.562Z,68.3
2017-09-12T08:23:46.783Z,68.21
2017-09-12T08:24:56.782Z,68.02
2017-09-12T08:26:07.160Z,68.59
2017-09-12T08:27:17.835Z,68.02
2017-09-12T08:28:28.294Z,68.21
2017-09-12T08:29:38.411Z,67.92
2017-09-12T08:30:48.879Z,67.54
2017-09-12T08:31:59.140Z,67.16
2017-09-12T08:33:09.274Z,67.16
2017-09-12T08:34:19.758Z,66.67
2017-09-12T08:35:30.200Z,66.86
2017-09-12T08:36:40.007Z,66.13
2017-09-12T08:37:50.751Z,66.23
2017-09-12T08:39:00.940Z,65.94
2017-09-12T08:40:11.077Z,65.69
2017-09-12T08:41:22.189Z,65.27
2017-09-12T08:42:32.809Z,65.88
2017-09-12T08:43:43.686Z,65.49
2017-09-12T08:44:53.817Z,65.2
2017-09-12T08:46:04.384Z,64.79
2017-09-12T08:47:14.916Z,64.79
2017-09-12T08:48:25.037Z,65.27
2017-09-12T08:49:35.770Z,65.08
2017-09-12T08:50:46.042Z,65.65
2017-09-12T08:51:56.074Z,65.94
2017-09-12T08:53:06.739Z,65.62
2017-09-12T08:54:16.859Z,66.19
2017-09-12T08:55:27.689Z,66.1
2017-09-12T08:56:38.184Z,66.1
2017-09-12T08:57:48.652Z,66.49
2017-09-12T08:58:59.136Z,66.29
2017-09-12T09:00:09.563Z,66
2017-09-12T09:01:20.243Z,66.49
2017-09-12T09:02:30.066Z,66.58
2017-09-12T09:03:40.536Z,66.58
2017-09-12T09:04:50.541Z,66.58
2017-09-12T09:06:01.069Z,66.19
2017-09-12T09:07:11.846Z,66.19
2017-09-12T09:08:22.501Z,66.1
2017-09-12T09:09:32.923Z,66
2017-09-12T09:10:43.441Z,65.94
2017-09-12T09:11:53.916Z,65.65
2017-09-12T09:13:04.643Z,66.13
2017-09-12T09:14:15.097Z,65.65
2017-09-12T09:15:25.614Z,65.75
2017-09-12T09:16:36.097Z,65.59
2017-09-12T09:17:46.532Z,64.92
2017-09-12T09:18:57.271Z,64.92
2017-09-12T09:20:07.717Z,64.34
2017-09-12T09:21:18.377Z,65.11
2017-09-12T09:22:28.928Z,64.72
2017-09-12T09:23:39.141Z,64.82
2017-09-12T09:24:49.936Z,64.92
2017-09-12T09:26:00.368Z,64.25
2017-09-12T09:27:10.435Z,63.57
2017-09-12T09:28:20.921Z,63.51
2017-09-12T09:29:31.369Z,63.51
2017-09-12T09:30:41.735Z,62.93
2017-09-12T09:31:52.276Z,62.93
2017-09-12T09:33:02.864Z,63.57
2017-09-12T09:34:13.297Z,62.99
2017-09-12T09:35:23.756Z,61.75
2017-09-12T09:36:34.496Z,62.61
2017-09-12T09:37:44.962Z,62.58
2017-09-12T09:38:55.552Z,62.48
2017-09-12T09:40:05.762Z,62.1
2017-09-12T09:41:16.213Z,62.04
2017-09-12T09:42:26.975Z,62.23
2017-09-12T09:43:37.417Z,62.32
2017-09-12T09:44:47.850Z,61.84
2017-09-12T09:45:58.400Z,61.84
2017-09-12T09:47:08.853Z,62.13
2017-09-12T09:48:19.580Z,61.75
2017-09-12T09:49:30.005Z,61.65
2017-09-12T09:50:40.152Z,62.04
2017-09-12T09:51:50.612Z,62.32
2017-09-12T09:53:00.751Z,62.81
2017-09-12T09:54:11.468Z,62.52
2017-09-12T09:55:21.919Z,61.65
2017-09-12T09:56:32.377Z,62.26
2017-09-12T09:57:42.808Z,61.87
2017-09-12T09:58:53.299Z,60.82
2017-09-12T10:00:03.979Z,61.01
2017-09-12T10:01:14.407Z,60.46
2017-09-12T10:02:24.899Z,60.94
2017-09-12T10:03:35.347Z,61.04
2017-09-12T10:04:45.790Z,61.14
2017-09-12T10:05:56.167Z,60.66
2017-09-12T10:07:06.625Z,60.27
2017-09-12T10:08:16.625Z,60.59
2017-09-12T10:09:27.088Z,59.63
2017-09-12T10:10:37.521Z,59.44
2017-09-12T10:11:48.197Z,59.63
2017-09-12T10:12:58.338Z,59.79
2017-09-12T10:14:09.001Z,60.11
2017-09-12T10:15:19.450Z,60.08
2017-09-12T10:16:29.900Z,59.15
2017-09-12T10:17:40.582Z,59.24
2017-09-12T10:18:51.336Z,58.47
2017-09-12T10:20:01.774Z,58.28
2017-09-12T10:21:12.244Z,58.09
2017-09-12T10:22:22.232Z,58.37
2017-09-12T10:23:32.635Z,58.37
2017-09-12T10:24:42.757Z,58.86
2017-09-12T10:25:53.305Z,58.57
2017-09-12T10:27:03.735Z,58.76
2017-09-12T10:28:14.400Z,58.86
2017-09-12T10:29:25.141Z,59.15
2017-09-12T10:30:35.820Z,59.05
2017-09-12T10:31:45.820Z,59.31
2017-09-12T10:32:56.203Z,59.41
2017-09-12T10:34:06.863Z,59.22
2017-09-12T10:35:17.280Z,59.41
2017-09-12T10:36:27.714Z,59.86
2017-09-12T10:37:38.144Z,60.24
2017-09-12T10:38:48.625Z,60.24
2017-09-12T10:39:59.081Z,60.34
2017-09-12T10:41:09.771Z,60.69
2017-09-12T10:42:20.252Z,60.98
2017-09-12T10:43:30.705Z,61.84
2017-09-12T10:44:41.177Z,62.01
2017-09-12T10:45:51.616Z,62.29
2017-09-12T10:47:02.379Z,62.48
2017-09-12T10:48:12.849Z,62.68
2017-09-12T10:49:23.282Z,62.48
2017-09-12T10:50:33.775Z,62.87
2017-09-12T10:51:44.560Z,62.77
2017-09-12T10:52:55.251Z,62.96
2017-09-12T10:54:05.727Z,63.45
2017-09-12T10:55:15.873Z,63.35
2017-09-12T10:56:26.060Z,63.92
2017-09-12T10:57:36.520Z,64.02
2017-09-12T10:58:47.226Z,64.02
2017-09-12T10:59:57.707Z,64.5
2017-09-12T11:01:08.201Z,64.4
2017-09-12T11:02:18.315Z,64.4
2017-09-12T11:03:28.456Z,64.76
2017-09-12T11:04:39.172Z,64.69
2017-09-12T11:05:49.705Z,64.37
2017-09-12T11:07:00.201Z,64.31
2017-09-12T11:08:10.413Z,64.37
2017-09-12T11:09:20.870Z,64.28
2017-09-12T11:10:31.574Z,64.28
2017-09-12T11:11:41.720Z,64.22
2017-09-12T11:12:52.450Z,64.31
2017-09-12T11:14:02.893Z,64.31
2017-09-12T11:15:13.344Z,64.5
2017-09-12T11:16:24.049Z,64.12
2017-09-12T11:17:34.509Z,64.4
2017-09-12T11:18:45.004Z,64.02
2017-09-12T11:19:55.479Z,63.96
2017-09-12T11:21:05.639Z,63.19
2017-09-12T11:22:15.778Z,63.48
2017-09-12T11:23:26.591Z,63.6
2017-09-12T11:24:37.072Z,61.78
2017-09-12T11:25:47.060Z,61.58
2017-09-12T11:26:57.555Z,61.3
2017-09-12T11:28:07.799Z,61.01
2017-09-12T11:29:17.957Z,60.63
2017-09-12T11:30:28.405Z,60.53
2017-09-12T11:31:38.935Z,61.01
2017-09-12T11:32:49.363Z,60.91
2017-09-12T11:34:00.049Z,60.82
2017-09-12T11:35:10.495Z,60.34
2017-09-12T11:36:20.915Z,60.27
2017-09-12T11:37:31.716Z,59.72
2017-09-12T11:38:42.147Z,58.95
2017-09-12T11:39:53.072Z,58.18
2017-09-12T11:41:03.566Z,58.37
2017-09-12T11:42:13.248Z,58.67
2017-09-12T11:43:23.416Z,58.5
2017-09-12T11:44:33.887Z,58.4
2017-09-12T11:45:44.592Z,57.92
2017-09-12T11:46:55.074Z,58.02
2017-09-12T11:48:05.512Z,57.47
2017-09-12T11:49:15.942Z,56.54
2017-09-12T11:50:26.427Z,55.29
2017-09-12T11:51:37.138Z,53.77
2017-09-12T11:52:47.589Z,52.64
2017-09-12T11:53:58.077Z,52.45
2017-09-12T11:55:08.525Z,51.22
2017-09-12T11:56:18.975Z,49.87
2017-09-12T11:57:29.675Z,49.7
2017-09-12T11:58:40.263Z,47.7
2017-09-12T11:59:50.751Z,47.6
2017-09-12T12:01:00.874Z,47.81
2017-09-12T12:02:11.001Z,49.24
2017-09-12T12:03:21.709Z,48.57
2017-09-12T12:04:32.174Z,48.18
2017-09-12T12:05:42.692Z,47.5
2017-09-12T12:06:53.210Z,48.11
2017-09-12T12:08:03.664Z,46.17
2017-09-12T12:09:14.373Z,45.69
2017-09-12T12:10:24.818Z,44.75
2017-09-12T12:11:35.272Z,43.41
2017-09-12T12:12:45.736Z,44.67
2017-09-12T12:13:56.206Z,44.09
2017-09-12T12:15:06.909Z,44.09
2017-09-12T12:16:17.379Z,43.3
2017-09-12T12:17:27.849Z,44.73
2017-09-12T12:18:37.854Z,45.11
2017-09-12T12:19:47.979Z,45.57
2017-09-12T12:20:58.689Z,46.23
2017-09-12T12:22:09.237Z,46.69
2017-09-12T12:23:19.835Z,47.65
2017-09-12T12:24:30.276Z,48.69
2017-09-12T12:25:40.819Z,48.49
2017-09-12T12:26:51.518Z,49.34
2017-09-12T12:28:01.966Z,49.12
2017-09-12T12:29:12.495Z,49.79
2017-09-12T12:30:22.980Z,50.37
2017-09-12T12:31:33.474Z,50.83
2017-09-12T12:32:44.164Z,51.41
2017-09-12T12:33:54.598Z,52.44
2017-09-12T12:35:05.128Z,52.92
2017-09-12T12:36:15.692Z,53.66
2017-09-12T12:37:26.130Z,54.24
2017-09-12T12:38:36.918Z,54.53
2017-09-12T12:39:47.403Z,54.53
2017-09-12T12:40:58.837Z,54.99
2017-09-12T12:42:09.305Z,55.08
2017-09-12T12:43:20.421Z,55.27
2017-09-12T12:44:31.118Z,55.66
2017-09-12T12:45:41.291Z,55.66
2017-09-12T12:46:51.422Z,56.43
2017-09-12T12:48:01.861Z,56.33
2017-09-12T12:49:12.312Z,56.23
2017-09-12T12:50:23.095Z,56.33
2017-09-12T12:51:33.553Z,56.62
2017-09-12T12:52:44.033Z,56.14
2017-09-12T12:53:54.708Z,56.23
2017-09-12T12:55:05.162Z,56.14
2017-09-12T12:56:15.854Z,56.23
2017-09-12T12:57:26.066Z,56.33
2017-09-12T12:58:36.518Z,56.33
2017-09-12T12:59:46.418Z,55.85
2017-09-12T13:00:56.876Z,55.59
2017-09-12T13:02:07.560Z,55.3
2017-09-12T13:03:18.125Z,55.52
2017-09-12T13:04:28.560Z,54.94
2017-09-12T13:05:39.114Z,54.46
2017-09-12T13:06:49.606Z,54.58
2017-09-12T13:08:00.304Z,54.32
2017-09-12T13:09:10.756Z,53.74
2017-09-12T13:10:21.186Z,53.67
2017-09-12T13:11:31.722Z,52.61
2017-09-12T13:12:42.173Z,51.94
2017-09-12T13:13:52.933Z,51.1
2017-09-12T13:15:03.276Z,51.48
2017-09-12T13:16:13.921Z,50.71
2017-09-12T13:17:24.381Z,50.32
2017-09-12T13:18:34.510Z,50.52
2017-09-12T13:19:45.195Z,49.63
2017-09-12T13:20:55.654Z,49.63
2017-09-12T13:22:05.794Z,50.21
2017-09-12T13:23:16.490Z,50.59
2017-09-12T13:24:26.562Z,50.49
2017-09-12T13:25:37.282Z,50.69
2017-09-12T13:26:47.833Z,50.59
2017-09-12T13:27:58.278Z,50.3
2017-09-12T13:29:08.724Z,50.21
2017-09-12T13:30:18.966Z,50.49
2017-09-12T13:31:29.363Z,50.27
2017-09-12T13:32:39.863Z,50.66
2017-09-12T13:33:50.313Z,51.24
2017-09-12T13:35:00.756Z,51.14
2017-09-12T13:36:11.244Z,50.66
2017-09-12T13:37:21.646Z,50.25
2017-09-12T13:38:32.097Z,50.25
2017-09-12T13:39:42.541Z,50.81
2017-09-12T13:40:53.368Z,51.29
2017-09-12T13:42:03.862Z,51.67
2017-09-12T13:43:14.677Z,51.55
2017-09-12T13:44:24.818Z,51.55
2017-09-12T13:45:35.268Z,51.93
2017-09-12T13:46:45.710Z,51.96
2017-09-12T13:47:56.364Z,52.15
2017-09-12T13:49:07.163Z,52.34
2017-09-12T13:50:17.807Z,52.44
2017-09-12T13:51:28.287Z,52.54
2017-09-12T13:52:38.753Z,52.56
2017-09-12T13:53:49.205Z,51.79
2017-09-12T13:54:59.957Z,51.5
2017-09-12T13:56:10.401Z,51.53
2017-09-12T13:57:20.859Z,50.76
2017-09-12T13:58:30.995Z,49.41
2017-09-12T13:59:41.563Z,49.6
2017-09-12T14:00:52.049Z,48.64
2017-09-12T14:02:02.534Z,48.64
2017-09-12T14:03:13.025Z,47.77
2017-09-12T14:04:23.201Z,47.67
2017-09-12T14:05:33.651Z,47.19
2017-09-12T14:06:44.386Z,46.62
2017-09-12T14:07:54.934Z,46.14
2017-09-12T14:09:05.424Z,46.23
2017-09-12T14:10:15.871Z,46.14
2017-09-12T14:11:26.340Z,46.81
2017-09-12T14:12:37.172Z,47
2017-09-12T14:13:47.628Z,47.1
2017-09-12T14:14:58.087Z,45.84
2017-09-12T14:16:08.225Z,46.33
2017-09-12T14:17:18.703Z,46.33
2017-09-12T14:18:29.441Z,46.71
2017-09-12T14:19:39.896Z,47.31
2017-09-12T14:20:50.357Z,47.22
2017-09-12T14:22:00.857Z,47.1
2017-09-12T14:23:11.520Z,47.39
2017-09-12T14:24:22.329Z,47.87
2017-09-12T14:25:32.461Z,47.87
2017-09-12T14:26:42.916Z,47.19
2017-09-12T14:27:53.380Z,46.91
2017-09-12T14:29:03.599Z,46.81
2017-09-12T14:30:14.526Z,47
2017-09-12T14:31:24.544Z,47.19
2017-09-12T14:32:34.705Z,47.29
2017-09-12T14:33:45.226Z,47.49
2017-09-12T14:34:55.698Z,47.19
2017-09-12T14:36:06.440Z,47.29
2017-09-12T14:37:16.991Z,47.39
2017-09-12T14:38:27.458Z,46.91
2017-09-12T14:39:37.918Z,47
2017-09-12T14:40:48.057Z,46.42
2017-09-12T14:41:58.345Z,45.27
2017-09-12T14:43:08.802Z,46.04
2017-09-12T14:44:19.278Z,45.94
2017-09-12T14:45:30.728Z,46.23
2017-09-12T14:46:40.909Z,45.65
2017-09-12T14:47:51.660Z,46.23
2017-09-12T14:49:02.144Z,46.14
2017-09-12T14:50:12.603Z,46.42
2017-09-12T14:51:23.102Z,46.91
2017-09-12T14:52:33.269Z,46.62
2017-09-12T14:53:44.010Z,46.33
2017-09-12T14:54:54.495Z,46.81
2017-09-12T14:56:05.023Z,46.71
2017-09-12T14:57:15.538Z,46.71
2017-09-12T14:58:25.984Z,46.71
2017-09-12T14:59:36.770Z,46.23
2017-09-12T15:00:47.257Z,46.04
2017-09-12T15:01:57.387Z,46.21
2017-09-12T15:03:07.866Z,45.25
2017-09-12T15:04:19.303Z,45.53
2017-09-12T15:05:29.999Z,45.92
2017-09-12T15:06:40.466Z,46.31
2017-09-12T15:07:50.974Z,46.4
2017-09-12T15:09:01.473Z,46.11
2017-09-12T15:10:11.912Z,45.92
2017-09-12T15:11:22.701Z,45.92
2017-09-12T15:12:33.451Z,46.77
2017-09-12T15:13:43.972Z,46.09